createdAt,value
2017-10-20T00:01:34.949Z,96.20
2017-10-20T00:04:05.472Z,96.20
2017-10-20T00:06:34.370Z,96.20
2017-10-20T00:09:03.466Z,96.30
2017-10-20T00:11:36.938Z,96.40
2017-10-20T00:14:06.466Z,96.40
2017-10-20T00:16:35.357Z,96.50
2017-10-20T00:19:04.653Z,96.30
2017-10-20T00:21:33.959Z,96.40
2017-10-20T00:24:02.853Z,96.30
2017-10-20T00:26:32.778Z,96.30
2017-10-20T00:29:01.760Z,96.20
2017-10-20T00:31:30.544Z,96.20
2017-10-20T00:34:00.475Z,96.20
2017-10-20T00:36:30.712Z,96.10
2017-10-20T00:38:59.892Z,96.10
2017-10-20T00:41:29.338Z,96.20
2017-10-20T00:43:58.578Z,96.10
2017-10-20T00:46:27.474Z,96.20
2017-10-20T00:48:56.344Z,96.50
2017-10-20T00:51:25.649Z,96.30
2017-10-20T00:53:54.689Z,96.20
2017-10-20T00:56:24.678Z,96.30
2017-10-20T00:58:54.387Z,96.20
2017-10-20T01:01:23.862Z,96.20
2017-10-20T01:03:53.096Z,96.40
2017-10-20T01:06:22.273Z,96.50
2017-10-20T01:08:51.183Z,96.50
2017-10-20T01:11:20.072Z,96.60
2017-10-20T01:13:49.067Z,96.50
2017-10-20T01:16:17.854Z,96.70
2017-10-20T01:18:46.751Z,96.80
2017-10-20T01:21:16.455Z,97.20
2017-10-20T01:23:46.605Z,97.20
2017-10-20T01:26:17.616Z,97.20
2017-10-20T01:28:47.324Z,97.40
2017-10-20T01:31:17.343Z,97.40
2017-10-20T01:33:46.448Z,97.30
2017-10-20T01:36:15.688Z,97.40
2017-10-20T01:38:44.837Z,97.40
2017-10-20T01:41:13.729Z,97.60
2017-10-20T01:43:44.567Z,97.70
2017-10-20T01:46:14.273Z,97.70
2017-10-20T01:48:43.372Z,97.80
2017-10-20T01:51:12.671Z,98.00
2017-10-20T01:53:41.564Z,98.00
2017-10-20T01:56:10.566Z,98.10
2017-10-20T01:58:39.732Z,98.20
2017-10-20T02:01:09.466Z,98.30
2017-10-20T02:03:38.724Z,98.30
2017-10-20T02:06:08.264Z,98.20
2017-10-20T02:08:37.578Z,98.40
2017-10-20T02:11:07.547Z,98.30
2017-10-20T02:13:36.686Z,98.30
2017-10-20T02:16:05.475Z,98.10
2017-10-20T02:18:34.488Z,98.20
2017-10-20T02:21:03.713Z,98.20
2017-10-20T02:23:32.659Z,98.30
2017-10-20T02:26:01.761Z,98.20
2017-10-20T02:28:30.710Z,98.20
2017-10-20T02:30:59.986Z,98.30
2017-10-20T02:33:28.844Z,98.40
2017-10-20T02:35:57.798Z,98.30
2017-10-20T02:38:26.826Z,98.20
2017-10-20T02:40:56.743Z,98.10
2017-10-20T02:43:25.635Z,98.00
2017-10-20T02:45:55.550Z,98.20
2017-10-20T02:48:24.339Z,98.20
2017-10-20T02:50:53.232Z,98.30
2017-10-20T02:53:22.933Z,98.60
2017-10-20T02:55:52.263Z,98.30
2017-10-20T02:58:21.338Z,98.20
2017-10-20T03:00:50.430Z,98.20
2017-10-20T03:03:20.147Z,98.30
2017-10-20T03:05:48.959Z,98.30
2017-10-20T03:08:17.928Z,98.10
2017-10-20T03:10:46.705Z,98.10
2017-10-20T03:13:15.493Z,98.00
2017-10-20T03:15:47.045Z,98.20
2017-10-20T03:18:16.100Z,98.30
2017-10-20T03:20:44.982Z,98.20
2017-10-20T03:23:13.926Z,98.10
2017-10-20T03:25:43.037Z,98.10
2017-10-20T03:28:11.963Z,98.10
2017-10-20T03:30:40.707Z,97.90
2017-10-20T03:33:09.587Z,97.70
2017-10-20T03:35:38.486Z,97.70
2017-10-20T03:38:07.414Z,97.70
2017-10-20T03:40:36.616Z,97.70
2017-10-20T03:43:05.457Z,97.70
2017-10-20T03:45:34.405Z,98.00
2017-10-20T03:48:03.141Z,98.10
2017-10-20T03:50:32.793Z,98.20
2017-10-20T03:53:01.483Z,98.20
2017-10-20T03:55:30.427Z,98.30
2017-10-20T03:57:59.314Z,98.50
2017-10-20T04:00:28.102Z,98.70
2017-10-20T04:02:57.095Z,98.80
2017-10-20T04:05:25.986Z,98.70
2017-10-20T04:07:54.896Z,98.70
2017-10-20T04:10:23.810Z,98.60
2017-10-20T04:12:52.763Z,98.70
2017-10-20T04:15:21.389Z,98.70
2017-10-20T04:17:50.968Z,98.50
2017-10-20T04:20:20.168Z,98.50
2017-10-20T04:22:48.944Z,98.30
2017-10-20T04:25:17.743Z,98.40
2017-10-20T04:27:46.522Z,98.20
2017-10-20T04:30:15.215Z,98.00
2017-10-20T04:32:44.814Z,98.00
2017-10-20T04:35:13.600Z,97.90
2017-10-20T04:37:42.310Z,97.90
2017-10-20T04:40:11.177Z,97.90
2017-10-20T04:42:39.863Z,97.90
2017-10-20T04:45:08.808Z,97.90
2017-10-20T04:47:38.267Z,97.60
2017-10-20T04:50:07.258Z,97.60
2017-10-20T04:52:36.867Z,97.60
2017-10-20T04:55:06.572Z,97.60
2017-10-20T04:57:36.698Z,97.60
2017-10-20T05:00:05.398Z,97.80
2017-10-20T05:02:35.107Z,97.60
2017-10-20T05:05:04.027Z,97.60
2017-10-20T05:07:32.783Z,97.70
2017-10-20T05:10:01.662Z,97.60
2017-10-20T05:12:31.277Z,97.60
2017-10-20T05:15:00.120Z,97.60
2017-10-20T05:17:29.049Z,97.60
2017-10-20T05:19:57.703Z,97.60
2017-10-20T05:22:26.625Z,97.70
2017-10-20T05:24:55.676Z,97.60
2017-10-20T05:27:24.554Z,97.60
2017-10-20T05:29:53.299Z,97.60
2017-10-20T05:32:22.191Z,97.70
2017-10-20T05:34:51.287Z,97.80
2017-10-20T05:37:20.178Z,97.80
2017-10-20T05:39:49.028Z,97.80
2017-10-20T05:42:18.107Z,97.90
2017-10-20T05:44:47.077Z,98.00
2017-10-20T05:47:16.001Z,97.90
2017-10-20T05:49:45.042Z,98.50
2017-10-20T05:52:15.115Z,97.70
2017-10-20T05:54:43.953Z,97.70
2017-10-20T05:57:13.918Z,97.70
2017-10-20T05:59:43.532Z,97.50
2017-10-20T06:02:13.547Z,97.40
2017-10-20T06:04:42.184Z,97.30
2017-10-20T06:07:11.378Z,97.30
2017-10-20T06:09:40.353Z,97.30
2017-10-20T06:12:09.659Z,97.20
2017-10-20T06:14:38.461Z,97.20
2017-10-20T06:17:07.448Z,96.90
2017-10-20T06:19:36.730Z,96.70
2017-10-20T06:22:05.681Z,96.80
2017-10-20T06:24:35.559Z,96.90
2017-10-20T06:27:05.053Z,96.60
2017-10-20T06:29:35.022Z,96.90
2017-10-20T06:32:04.894Z,96.90
2017-10-20T06:34:36.159Z,96.80
2017-10-20T06:37:05.880Z,96.70
2017-10-20T06:39:35.947Z,96.70
2017-10-20T06:42:05.425Z,96.70
2017-10-20T06:44:34.450Z,96.60
2017-10-20T06:47:03.258Z,96.70
2017-10-20T06:49:32.352Z,96.70
2017-10-20T06:52:01.259Z,96.60
2017-10-20T06:54:30.570Z,96.40
2017-10-20T06:56:59.968Z,96.40
2017-10-20T06:59:28.838Z,96.40
2017-10-20T07:01:57.848Z,96.10
2017-10-20T07:04:26.725Z,96.10
2017-10-20T07:06:56.432Z,96.00
2017-10-20T07:09:25.377Z,95.90
2017-10-20T07:11:55.186Z,95.80
2017-10-20T07:14:24.443Z,95.90
2017-10-20T07:16:53.946Z,95.90
2017-10-20T07:19:24.702Z,95.90
2017-10-20T07:21:53.682Z,95.60
2017-10-20T07:24:22.973Z,95.50
2017-10-20T07:26:52.173Z,95.60
2017-10-20T07:29:20.991Z,95.60
2017-10-20T07:31:49.927Z,95.60
2017-10-20T07:34:18.941Z,95.20
2017-10-20T07:36:48.102Z,95.50
2017-10-20T07:39:16.839Z,95.30
2017-10-20T07:41:46.744Z,95.40
2017-10-20T07:44:15.560Z,95.30
2017-10-20T07:46:44.744Z,95.20
2017-10-20T07:49:13.520Z,94.60
2017-10-20T07:51:43.127Z,94.60
2017-10-20T07:54:12.120Z,94.80
2017-10-20T07:56:41.427Z,94.40
2017-10-20T07:59:12.158Z,94.40
2017-10-20T08:01:41.322Z,94.40
2017-10-20T08:04:11.064Z,94.20
2017-10-20T08:06:40.266Z,94.10
2017-10-20T08:09:09.885Z,93.50
2017-10-20T08:11:38.871Z,93.20
2017-10-20T08:14:08.722Z,93.30
2017-10-20T08:16:37.737Z,93.30
2017-10-20T08:19:06.781Z,93.30
2017-10-20T08:21:37.165Z,92.80
2017-10-20T08:24:06.060Z,92.90
2017-10-20T08:26:34.982Z,92.60
2017-10-20T08:29:03.974Z,92.50
2017-10-20T08:31:33.908Z,92.00
2017-10-20T08:34:04.848Z,91.90
2017-10-20T08:36:33.722Z,91.90
2017-10-20T08:39:03.630Z,91.80
2017-10-20T08:41:37.797Z,92.00
2017-10-20T08:44:08.378Z,92.10
2017-10-20T08:46:38.976Z,92.10
2017-10-20T08:49:08.129Z,91.80
2017-10-20T08:51:38.055Z,92.10
2017-10-20T08:54:08.061Z,91.10
2017-10-20T08:56:37.029Z,91.10
2017-10-20T08:59:06.260Z,91.10
2017-10-20T09:01:35.360Z,90.30
2017-10-20T09:04:05.295Z,90.60
2017-10-20T09:06:36.030Z,90.40
2017-10-20T09:09:05.860Z,90.40
2017-10-20T09:11:35.124Z,90.40
2017-10-20T09:14:04.100Z,90.20
2017-10-20T09:16:34.811Z,90.00
2017-10-20T09:19:03.915Z,90.00
2017-10-20T09:21:32.805Z,89.70
2017-10-20T09:24:02.115Z,88.50
2017-10-20T09:26:32.019Z,88.50
2017-10-20T09:29:03.212Z,88.50
2017-10-20T09:31:32.542Z,88.50
2017-10-20T09:34:02.376Z,88.30
2017-10-20T09:36:31.249Z,87.60
2017-10-20T09:39:00.825Z,87.90
2017-10-20T09:41:30.603Z,87.60
2017-10-20T09:44:00.511Z,88.10
2017-10-20T09:46:29.409Z,87.50
2017-10-20T09:48:59.509Z,87.50
2017-10-20T09:51:28.401Z,87.50
2017-10-20T09:53:58.607Z,87.80
2017-10-20T09:56:27.595Z,87.40
2017-10-20T09:58:56.736Z,87.40
2017-10-20T10:01:26.022Z,86.90
2017-10-20T10:03:54.982Z,86.30
2017-10-20T10:06:23.899Z,86.90
2017-10-20T10:08:52.837Z,86.40
2017-10-20T10:11:22.100Z,85.60
2017-10-20T10:13:51.098Z,86.00
2017-10-20T10:16:19.873Z,85.60
2017-10-20T10:18:49.406Z,84.40
2017-10-20T10:21:18.759Z,84.10
2017-10-20T10:23:48.013Z,84.10
2017-10-20T10:26:18.370Z,83.60
2017-10-20T10:28:47.648Z,83.60
2017-10-20T10:31:17.062Z,83.20
2017-10-20T10:33:47.276Z,83.20
2017-10-20T10:36:16.953Z,82.70
2017-10-20T10:38:47.058Z,82.90
2017-10-20T10:41:16.262Z,82.80
2017-10-20T10:43:45.979Z,84.70
2017-10-20T10:46:15.172Z,84.60
2017-10-20T10:48:44.246Z,84.20
2017-10-20T10:51:13.653Z,83.70
2017-10-20T10:53:42.797Z,83.80
2017-10-20T10:56:12.483Z,83.50
2017-10-20T10:58:41.772Z,83.50
2017-10-20T11:01:10.939Z,83.60
2017-10-20T11:03:40.300Z,83.60
2017-10-20T11:06:20.900Z,83.40
2017-10-20T11:09:01.913Z,83.40
2017-10-20T11:11:42.448Z,82.90
2017-10-20T11:14:11.369Z,83.00
2017-10-20T11:16:40.534Z,83.00
2017-10-20T11:19:09.864Z,83.50
2017-10-20T11:21:42.383Z,83.70
2017-10-20T11:24:13.842Z,83.70
2017-10-20T11:26:43.265Z,83.50
2017-10-20T11:29:12.476Z,83.10
2017-10-20T11:31:41.647Z,83.50
2017-10-20T11:34:10.650Z,82.70
2017-10-20T11:36:40.091Z,83.40
2017-10-20T11:39:09.358Z,82.50
2017-10-20T11:41:39.178Z,82.30
2017-10-20T11:44:08.003Z,81.60
2017-10-20T11:46:38.244Z,81.50
2017-10-20T11:49:07.933Z,81.40
2017-10-20T11:51:37.333Z,81.00
2017-10-20T11:54:06.220Z,80.90
2017-10-20T11:56:35.009Z,81.60
2017-10-20T11:59:03.842Z,81.80
2017-10-20T12:01:33.063Z,81.60
2017-10-20T12:04:02.625Z,81.10
2017-10-20T12:06:32.525Z,81.40
2017-10-20T12:09:03.148Z,81.40
2017-10-20T12:11:32.483Z,81.50
2017-10-20T12:14:01.934Z,82.20
2017-10-20T12:16:32.770Z,81.40
2017-10-20T12:19:02.577Z,80.90
2017-10-20T12:21:31.291Z,81.20
2017-10-20T12:24:00.315Z,80.10
2017-10-20T12:26:29.051Z,80.00
2017-10-20T12:28:58.370Z,79.00
2017-10-20T12:31:27.291Z,78.50
2017-10-20T12:33:56.258Z,78.40
2017-10-20T12:36:26.415Z,77.90
2017-10-20T12:38:56.025Z,76.80
2017-10-20T12:41:25.081Z,76.20
2017-10-20T12:43:54.425Z,75.70
2017-10-20T12:46:23.670Z,75.90
2017-10-20T12:48:52.852Z,76.90
2017-10-20T12:51:22.533Z,77.40
2017-10-20T12:53:52.878Z,78.60
2017-10-20T12:56:23.496Z,77.10
2017-10-20T12:58:55.135Z,74.80
2017-10-20T13:01:27.022Z,74.70
2017-10-20T13:03:57.183Z,73.40
2017-10-20T13:06:30.382Z,72.60
2017-10-20T13:09:01.186Z,72.00
2017-10-20T13:11:31.768Z,70.40
2017-10-20T13:14:00.748Z,68.40
2017-10-20T13:16:29.943Z,67.40
2017-10-20T13:18:58.829Z,68.80
2017-10-20T13:21:27.899Z,69.40
2017-10-20T13:23:57.020Z,70.40
2017-10-20T13:26:25.958Z,71.00
2017-10-20T13:28:55.111Z,71.00
2017-10-20T13:31:25.127Z,67.30
2017-10-20T13:33:54.180Z,67.20
2017-10-20T13:36:24.071Z,64.40
2017-10-20T13:38:53.645Z,61.40
2017-10-20T13:41:22.641Z,59.90
2017-10-20T13:43:52.244Z,59.90
2017-10-20T13:46:21.341Z,61.90
2017-10-20T13:48:50.126Z,64.30
2017-10-20T13:51:19.022Z,65.70
2017-10-20T13:53:47.903Z,64.90
2017-10-20T13:56:17.010Z,67.70
2017-10-20T13:58:45.983Z,69.10
2017-10-20T14:01:15.918Z,72.60
2017-10-20T14:03:46.037Z,72.00
2017-10-20T14:06:15.747Z,73.10
2017-10-20T14:08:46.278Z,72.00
2017-10-20T14:11:15.161Z,72.00
2017-10-20T14:13:44.307Z,72.70
2017-10-20T14:16:15.971Z,72.20
2017-10-20T14:18:45.109Z,72.20
2017-10-20T14:21:14.251Z,72.50
2017-10-20T14:23:43.391Z,71.20
2017-10-20T14:26:12.092Z,70.10
2017-10-20T14:28:40.981Z,70.50
2017-10-20T14:31:10.041Z,73.30
2017-10-20T14:33:38.766Z,73.80
2017-10-20T14:36:08.135Z,75.10
2017-10-20T14:38:37.195Z,76.10
2017-10-20T14:41:06.316Z,76.80
2017-10-20T14:43:35.303Z,77.30
2017-10-20T14:46:04.225Z,77.10
2017-10-20T14:48:33.402Z,77.50
2017-10-20T14:51:03.171Z,76.70
2017-10-20T14:53:33.683Z,77.90
2017-10-20T14:56:03.909Z,77.70
2017-10-20T14:58:32.820Z,77.70
2017-10-20T15:01:01.822Z,78.50
2017-10-20T15:03:30.842Z,78.10
2017-10-20T15:05:59.860Z,78.50
2017-10-20T15:08:30.462Z,78.00
2017-10-20T15:11:00.483Z,79.00
2017-10-20T15:13:29.844Z,78.90
2017-10-20T15:15:59.156Z,79.00
2017-10-20T15:18:27.918Z,79.30
2017-10-20T15:20:58.558Z,80.60
2017-10-20T15:23:32.626Z,81.40
2017-10-20T15:26:02.798Z,82.00
2017-10-20T15:28:33.632Z,82.10
2017-10-20T15:31:03.076Z,81.40
2017-10-20T15:33:33.037Z,80.90
2017-10-20T15:36:05.089Z,81.00
2017-10-20T15:38:34.409Z,81.50
2017-10-20T15:41:03.432Z,81.40
2017-10-20T15:43:33.167Z,81.20
2017-10-20T15:46:03.438Z,81.40
2017-10-20T15:48:33.047Z,81.60
2017-10-20T15:51:02.981Z,81.40
2017-10-20T15:53:31.882Z,81.90
2017-10-20T15:56:01.384Z,82.10
2017-10-20T15:58:30.961Z,82.40
2017-10-20T16:01:00.123Z,82.80
2017-10-20T16:03:29.358Z,83.20
2017-10-20T16:05:58.557Z,83.40
2017-10-20T16:08:27.760Z,83.00
2017-10-20T16:10:57.206Z,83.20
2017-10-20T16:13:26.339Z,83.30
2017-10-20T16:15:55.987Z,83.30
2017-10-20T16:18:26.092Z,83.00
2017-10-20T16:20:55.085Z,83.00
2017-10-20T16:23:25.241Z,83.60
2017-10-20T16:25:54.379Z,83.80
2017-10-20T16:28:24.102Z,83.90
2017-10-20T16:30:53.955Z,84.10
2017-10-20T16:33:24.425Z,83.40
2017-10-20T16:35:53.734Z,83.50
2017-10-20T16:38:23.504Z,83.80
2017-10-20T16:40:52.979Z,84.40
2017-10-20T16:43:22.195Z,83.80
2017-10-20T16:45:51.739Z,84.40
2017-10-20T16:48:20.920Z,84.80
2017-10-20T16:50:50.233Z,83.40
2017-10-20T16:53:19.805Z,84.80
2017-10-20T16:55:50.660Z,85.60
2017-10-20T16:58:20.340Z,85.50
2017-10-20T17:00:49.625Z,85.50
2017-10-20T17:03:19.584Z,85.50
2017-10-20T17:05:50.010Z,86.00
2017-10-20T17:08:20.510Z,85.90
2017-10-20T17:10:50.994Z,86.30
2017-10-20T17:13:21.508Z,86.70
2017-10-20T17:15:51.840Z,87.10
2017-10-20T17:18:21.150Z,86.50
2017-10-20T17:20:49.980Z,86.70
2017-10-20T17:23:19.018Z,86.70
2017-10-20T17:25:47.876Z,86.60
2017-10-20T17:28:17.455Z,87.30
2017-10-20T17:30:48.955Z,87.40
2017-10-20T17:33:18.555Z,87.80
2017-10-20T17:35:49.417Z,87.90
2017-10-20T17:38:18.799Z,88.30
2017-10-20T17:40:48.312Z,88.70
2017-10-20T17:43:17.670Z,88.90
2017-10-20T17:45:47.013Z,88.80
2017-10-20T17:48:16.139Z,88.70
2017-10-20T17:50:45.692Z,88.30
2017-10-20T17:53:19.964Z,88.80
2017-10-20T17:55:52.623Z,89.30
2017-10-20T17:58:22.023Z,89.70
2017-10-20T18:00:52.573Z,89.60
2017-10-20T18:03:22.314Z,89.70
2017-10-20T18:05:52.591Z,89.80
2017-10-20T18:08:23.579Z,89.50
2017-10-20T18:10:54.738Z,89.50
2017-10-20T18:13:25.435Z,89.50
2017-10-20T18:15:54.630Z,89.70
2017-10-20T18:18:24.583Z,89.70
2017-10-20T18:20:54.364Z,89.70
2017-10-20T18:23:24.048Z,89.70
2017-10-20T18:25:54.336Z,89.90
2017-10-20T18:28:25.583Z,90.20
2017-10-20T18:30:54.960Z,90.20
2017-10-20T18:33:25.282Z,90.40
2017-10-20T18:35:55.094Z,90.40
2017-10-20T18:38:24.632Z,90.40
2017-10-20T18:40:54.722Z,90.10
2017-10-20T18:43:24.636Z,90.10
2017-10-20T18:45:54.963Z,90.20
2017-10-20T18:48:25.751Z,90.30
2017-10-20T18:50:56.491Z,90.50
2017-10-20T18:53:26.206Z,90.40
2017-10-20T18:55:56.897Z,90.40
2017-10-20T18:58:27.030Z,90.70
2017-10-20T19:00:56.552Z,90.40
2017-10-20T19:03:25.492Z,90.60
2017-10-20T19:05:54.899Z,91.00
2017-10-20T19:08:24.353Z,90.70
2017-10-20T19:10:53.143Z,90.70
2017-10-20T19:13:22.600Z,90.70
2017-10-20T19:15:51.912Z,90.70
2017-10-20T19:18:20.826Z,90.70
2017-10-20T19:20:49.839Z,90.70
2017-10-20T19:23:20.128Z,90.60
2017-10-20T19:25:48.929Z,90.60
2017-10-20T19:28:18.602Z,90.80
2017-10-20T19:30:50.079Z,90.90
2017-10-20T19:33:19.212Z,90.90
2017-10-20T19:35:48.248Z,91.10
2017-10-20T19:38:17.238Z,91.00
2017-10-20T19:40:47.053Z,91.10
2017-10-20T19:43:17.852Z,91.30
2017-10-20T19:45:47.665Z,91.30
2017-10-20T19:48:17.278Z,91.20
2017-10-20T19:50:47.092Z,91.40
2017-10-20T19:53:16.574Z,91.30
2017-10-20T19:55:46.745Z,91.40
2017-10-20T19:58:16.494Z,91.50
2017-10-20T20:00:46.546Z,91.50
2017-10-20T20:03:16.869Z,91.50
2017-10-20T20:05:49.106Z,91.50
2017-10-20T20:08:18.046Z,91.50
2017-10-20T20:10:50.446Z,91.70
2017-10-20T20:13:19.963Z,91.40
2017-10-20T20:15:50.231Z,91.40
2017-10-20T20:18:20.128Z,91.40
2017-10-20T20:20:50.764Z,91.30
2017-10-20T20:23:20.173Z,91.40
2017-10-20T20:25:51.192Z,91.60
2017-10-20T20:28:21.985Z,91.40
2017-10-20T20:30:51.563Z,91.40
2017-10-20T20:33:28.210Z,91.40
2017-10-20T20:35:57.497Z,91.40
2017-10-20T20:38:27.487Z,91.30
2017-10-20T20:40:56.646Z,91.30
2017-10-20T20:43:26.021Z,91.30
2017-10-20T20:45:55.083Z,91.40
2017-10-20T20:48:24.138Z,91.40
2017-10-20T20:50:54.650Z,91.50
2017-10-20T20:53:23.761Z,91.50
2017-10-20T20:55:53.465Z,91.40
2017-10-20T20:58:23.192Z,91.30
2017-10-20T21:00:52.740Z,91.40
2017-10-20T21:03:22.221Z,91.50
2017-10-20T21:05:52.049Z,91.60
2017-10-20T21:08:22.328Z,91.50
2017-10-20T21:10:51.949Z,91.50
2017-10-20T21:13:22.297Z,91.70
2017-10-20T21:15:53.237Z,91.60
2017-10-20T21:18:22.659Z,91.50
2017-10-20T21:20:52.373Z,91.50
2017-10-20T21:23:22.343Z,91.40
2017-10-20T21:25:52.278Z,91.60
2017-10-20T21:28:21.555Z,91.60
2017-10-20T21:30:50.800Z,91.50
2017-10-20T21:33:20.191Z,91.70
2017-10-20T21:35:49.911Z,91.80
2017-10-20T21:38:18.882Z,91.80
2017-10-20T21:40:47.837Z,91.70
2017-10-20T21:43:16.900Z,91.70
2017-10-20T21:45:46.809Z,91.80
2017-10-20T21:48:15.793Z,91.80
2017-10-20T21:50:44.868Z,91.80
2017-10-20T21:53:13.909Z,91.90
2017-10-20T21:55:43.594Z,92.00
2017-10-20T21:58:12.485Z,92.00
2017-10-20T22:00:41.157Z,92.00
2017-10-20T22:03:11.680Z,92.10
2017-10-20T22:05:45.508Z,92.10
2017-10-20T22:08:15.398Z,92.10
2017-10-20T22:10:44.351Z,92.10
2017-10-20T22:13:17.229Z,92.20
2017-10-20T22:15:49.617Z,92.20
2017-10-20T22:18:21.219Z,92.20
2017-10-20T22:20:50.684Z,92.20
2017-10-20T22:23:19.517Z,92.20
2017-10-20T22:25:49.498Z,92.30
2017-10-20T22:28:19.421Z,92.30
2017-10-20T22:30:50.692Z,92.20
2017-10-20T22:33:20.260Z,92.20
2017-10-20T22:35:49.219Z,92.20
2017-10-20T22:38:18.888Z,92.20
2017-10-20T22:40:48.898Z,92.20
2017-10-20T22:43:17.786Z,92.40
2017-10-20T22:45:46.909Z,92.40
2017-10-20T22:48:16.069Z,92.20
2017-10-20T22:50:46.009Z,92.30
2017-10-20T22:53:23.369Z,92.40
2017-10-20T22:55:54.568Z,92.40
2017-10-20T22:58:26.620Z,92.50
2017-10-20T23:00:55.849Z,92.40
2017-10-20T23:03:24.607Z,92.50
2017-10-20T23:05:54.322Z,92.50
2017-10-20T23:08:23.104Z,92.50
2017-10-20T23:10:52.997Z,92.60
2017-10-20T23:13:22.425Z,92.60
2017-10-20T23:15:52.221Z,92.70
2017-10-20T23:18:21.766Z,92.70
2017-10-20T23:20:50.768Z,92.70
2017-10-20T23:23:20.446Z,92.80
2017-10-20T23:25:49.893Z,92.80
2017-10-20T23:28:19.644Z,92.80
2017-10-20T23:30:48.453Z,92.80
2017-10-20T23:33:17.718Z,92.80
2017-10-20T23:35:46.785Z,92.80
2017-10-20T23:38:15.849Z,92.80
2017-10-20T23:40:44.740Z,92.80
2017-10-20T23:43:14.442Z,92.80
2017-10-20T23:45:44.159Z,93.00
2017-10-20T23:48:13.153Z,93.10
2017-10-20T23:50:42.703Z,93.00
2017-10-20T23:53:11.962Z,93.00
2017-10-20T23:55:40.642Z,92.90
2017-10-20T23:58:09.647Z,92.80
